sensor_id;sensor_type;location;lat;lon;timestamp;P1;durP1;ratioP1;P2;durP2;ratioP2
23009;SDS011;11671;49.990;8.028;2023-06-19T00:00:44;9.65;;;6.22;;
23009;SDS011;11671;49.990;8.028;2023-06-19T00:05:35;7.10;;;6.40;;
23009;SDS011;11671;49.990;8.028;2023-06-19T00:10:31;8.48;;;6.22;;
23009;SDS011;11671;49.990;8.028;2023-06-19T00:15:22;8.65;;;6.28;;
23009;SDS011;11671;49.990;8.028;2023-06-19T00:17:48;7.78;;;6.50;;
23009;SDS011;11671;49.990;8.028;2023-06-19T00:20:13;10.70;;;6.72;;
23009;SDS011;11671;49.990;8.028;2023-06-19T00:22:39;12.63;;;5.88;;
23009;SDS011;11671;49.990;8.028;2023-06-19T00:25:05;11.07;;;6.68;;
23009;SDS011;11671;49.990;8.028;2023-06-19T00:27:31;10.02;;;6.60;;
23009;SDS011;11671;49.990;8.028;2023-06-19T00:32:28;10.45;;;6.72;;
23009;SDS011;11671;49.990;8.028;2023-06-19T00:34:54;10.40;;;6.63;;
23009;SDS011;11671;49.990;8.028;2023-06-19T00:37:23;9.27;;;6.32;;
23009;SDS011;11671;49.990;8.028;2023-06-19T00:39:48;13.45;;;6.68;;
23009;SDS011;11671;49.990;8.028;2023-06-19T00:44:40;7.80;;;6.60;;
23009;SDS011;11671;49.990;8.028;2023-06-19T00:47:06;7.45;;;6.18;;
23009;SDS011;11671;49.990;8.028;2023-06-19T00:51:58;9.43;;;7.03;;
23009;SDS011;11671;49.990;8.028;2023-06-19T00:56:50;8.70;;;6.15;;
23009;SDS011;11671;49.990;8.028;2023-06-19T00:59:17;9.07;;;6.80;;
23009;SDS011;11671;49.990;8.028;2023-06-19T01:01:44;8.93;;;6.80;;
23009;SDS011;11671;49.990;8.028;2023-06-19T01:04:12;9.57;;;6.55;;
23009;SDS011;11671;49.990;8.028;2023-06-19T01:09:32;10.00;;;6.32;;
23009;SDS011;11671;49.990;8.028;2023-06-19T01:12:08;7.82;;;6.68;;
23009;SDS011;11671;49.990;8.028;2023-06-19T01:14:46;6.63;;;5.68;;
23009;SDS011;11671;49.990;8.028;2023-06-19T01:17:19;10.75;;;6.50;;
23009;SDS011;11671;49.990;8.028;2023-06-19T01:19:45;6.97;;;6.28;;
23009;SDS011;11671;49.990;8.028;2023-06-19T01:22:21;9.23;;;7.43;;
23009;SDS011;11671;49.990;8.028;2023-06-19T01:24:51;10.52;;;7.47;;
23009;SDS011;11671;49.990;8.028;2023-06-19T01:29:42;8.77;;;6.28;;
23009;SDS011;11671;49.990;8.028;2023-06-19T01:34:42;11.20;;;6.80;;
23009;SDS011;11671;49.990;8.028;2023-06-19T01:39:34;9.95;;;7.53;;
23009;SDS011;11671;49.990;8.028;2023-06-19T01:42:01;9.10;;;7.15;;
23009;SDS011;11671;49.990;8.028;2023-06-19T01:44:28;8.60;;;6.22;;
23009;SDS011;11671;49.990;8.028;2023-06-19T01:49:20;11.23;;;7.45;;
23009;SDS011;11671;49.990;8.028;2023-06-19T01:54:11;12.23;;;7.70;;
23009;SDS011;11671;49.990;8.028;2023-06-19T01:59:02;11.18;;;7.68;;
23009;SDS011;11671;49.990;8.028;2023-06-19T02:03:53;8.05;;;7.13;;
23009;SDS011;11671;49.990;8.028;2023-06-19T02:08:46;8.55;;;6.82;;
23009;SDS011;11671;49.990;8.028;2023-06-19T02:11:13;7.82;;;6.90;;
23009;SDS011;11671;49.990;8.028;2023-06-19T02:16:04;8.98;;;7.50;;
23009;SDS011;11671;49.990;8.028;2023-06-19T02:20:55;9.13;;;6.80;;
23009;SDS011;11671;49.990;8.028;2023-06-19T02:25:47;10.95;;;7.97;;
23009;SDS011;11671;49.990;8.028;2023-06-19T02:30:38;9.95;;;7.22;;
23009;SDS011;11671;49.990;8.028;2023-06-19T02:35:29;11.15;;;6.60;;
23009;SDS011;11671;49.990;8.028;2023-06-19T02:40:21;8.25;;;6.95;;
23009;SDS011;11671;49.990;8.028;2023-06-19T02:45:12;8.65;;;7.20;;
23009;SDS011;11671;49.990;8.028;2023-06-19T02:50:03;11.80;;;6.65;;
23009;SDS011;11671;49.990;8.028;2023-06-19T02:52:29;9.45;;;7.05;;
23009;SDS011;11671;49.990;8.028;2023-06-19T02:57:21;8.95;;;7.07;;
23009;SDS011;11671;49.990;8.028;2023-06-19T02:59:47;11.13;;;7.35;;
23009;SDS011;11671;49.990;8.028;2023-06-19T03:04:39;8.05;;;7.00;;
23009;SDS011;11671;49.990;8.028;2023-06-19T03:07:06;10.20;;;7.50;;
23009;SDS011;11671;49.990;8.028;2023-06-19T03:11:57;9.40;;;7.30;;
23009;SDS011;11671;49.990;8.028;2023-06-19T03:16:48;8.32;;;7.38;;
23009;SDS011;11671;49.990;8.028;2023-06-19T03:21:39;9.55;;;6.65;;
23009;SDS011;11671;49.990;8.028;2023-06-19T03:26:31;8.05;;;7.03;;
23009;SDS011;11671;49.990;8.028;2023-06-19T03:31:22;11.80;;;6.78;;
23009;SDS011;11671;49.990;8.028;2023-06-19T03:36:13;7.68;;;6.88;;
23009;SDS011;11671;49.990;8.028;2023-06-19T03:41:04;8.98;;;7.03;;
23009;SDS011;11671;49.990;8.028;2023-06-19T03:45:55;8.43;;;6.57;;
23009;SDS011;11671;49.990;8.028;2023-06-19T03:50:46;9.52;;;6.80;;
23009;SDS011;11671;49.990;8.028;2023-06-19T03:55:37;12.45;;;6.88;;
23009;SDS011;11671;49.990;8.028;2023-06-19T04:00:28;9.25;;;6.47;;
23009;SDS011;11671;49.990;8.028;2023-06-19T04:05:20;7.85;;;5.60;;
23009;SDS011;11671;49.990;8.028;2023-06-19T04:10:11;7.18;;;6.20;;
23009;SDS011;11671;49.990;8.028;2023-06-19T04:15:02;12.60;;;7.03;;
23009;SDS011;11671;49.990;8.028;2023-06-19T04:17:29;8.32;;;6.07;;
23009;SDS011;11671;49.990;8.028;2023-06-19T04:22:20;8.25;;;5.78;;
23009;SDS011;11671;49.990;8.028;2023-06-19T04:24:45;9.30;;;5.22;;
23009;SDS011;11671;49.990;8.028;2023-06-19T04:29:36;9.00;;;4.80;;
23009;SDS011;11671;49.990;8.028;2023-06-19T04:32:02;10.63;;;4.80;;
23009;SDS011;11671;49.990;8.028;2023-06-19T04:34:36;7.15;;;4.78;;
23009;SDS011;11671;49.990;8.028;2023-06-19T04:37:11;6.22;;;5.50;;
23009;SDS011;11671;49.990;8.028;2023-06-19T04:42:02;8.15;;;4.80;;
23009;SDS011;11671;49.990;8.028;2023-06-19T04:44:28;7.15;;;4.68;;
23009;SDS011;11671;49.990;8.028;2023-06-19T04:46:58;7.70;;;4.60;;
23009;SDS011;11671;49.990;8.028;2023-06-19T04:49:27;5.25;;;4.30;;
23009;SDS011;11671;49.990;8.028;2023-06-19T04:51:56;7.07;;;3.95;;
23009;SDS011;11671;49.990;8.028;2023-06-19T04:54:23;6.40;;;4.25;;
23009;SDS011;11671;49.990;8.028;2023-06-19T04:56:49;7.45;;;4.25;;
23009;SDS011;11671;49.990;8.028;2023-06-19T05:01:42;11.48;;;4.35;;
23009;SDS011;11671;49.990;8.028;2023-06-19T05:04:09;6.43;;;3.80;;
23009;SDS011;11671;49.990;8.028;2023-06-19T05:06:36;11.07;;;4.65;;
23009;SDS011;11671;49.990;8.028;2023-06-19T05:09:02;11.35;;;4.50;;
23009;SDS011;11671;49.990;8.028;2023-06-19T05:11:28;6.38;;;3.78;;
23009;SDS011;11671;49.990;8.028;2023-06-19T05:13:53;5.68;;;3.63;;
23009;SDS011;11671;49.990;8.028;2023-06-19T05:16:19;5.63;;;4.18;;
23009;SDS011;11671;49.990;8.028;2023-06-19T05:18:45;6.22;;;3.92;;
23009;SDS011;11671;49.990;8.028;2023-06-19T05:21:10;5.85;;;3.38;;
23009;SDS011;11671;49.990;8.028;2023-06-19T05:23:36;5.07;;;4.03;;
23009;SDS011;11671;49.990;8.028;2023-06-19T05:26:03;5.10;;;3.55;;
23009;SDS011;11671;49.990;8.028;2023-06-19T05:28:29;5.82;;;3.47;;
23009;SDS011;11671;49.990;8.028;2023-06-19T05:30:55;8.57;;;4.45;;
23009;SDS011;11671;49.990;8.028;2023-06-19T05:33:20;6.38;;;3.10;;
23009;SDS011;11671;49.990;8.028;2023-06-19T05:35:48;8.15;;;3.40;;
23009;SDS011;11671;49.990;8.028;2023-06-19T05:38:18;5.70;;;3.88;;
23009;SDS011;11671;49.990;8.028;2023-06-19T05:40:45;5.60;;;3.58;;
23009;SDS011;11671;49.990;8.028;2023-06-19T05:43:11;4.80;;;3.78;;
23009;SDS011;11671;49.990;8.028;2023-06-19T05:45:37;6.57;;;3.25;;
23009;SDS011;11671;49.990;8.028;2023-06-19T05:48:03;9.75;;;3.67;;
23009;SDS011;11671;49.990;8.028;2023-06-19T05:50:29;5.85;;;3.55;;
23009;SDS011;11671;49.990;8.028;2023-06-19T05:52:55;7.75;;;3.33;;
23009;SDS011;11671;49.990;8.028;2023-06-19T05:55:21;4.07;;;2.60;;
23009;SDS011;11671;49.990;8.028;2023-06-19T05:57:47;8.10;;;3.58;;
23009;SDS011;11671;49.990;8.028;2023-06-19T06:00:12;4.32;;;2.70;;
23009;SDS011;11671;49.990;8.028;2023-06-19T06:02:40;4.85;;;2.88;;
23009;SDS011;11671;49.990;8.028;2023-06-19T06:05:06;3.45;;;2.97;;
23009;SDS011;11671;49.990;8.028;2023-06-19T06:07:33;4.72;;;3.17;;
23009;SDS011;11671;49.990;8.028;2023-06-19T06:09:59;5.72;;;2.70;;
23009;SDS011;11671;49.990;8.028;2023-06-19T06:12:25;3.70;;;2.80;;
23009;SDS011;11671;49.990;8.028;2023-06-19T06:14:50;4.95;;;3.03;;
23009;SDS011;11671;49.990;8.028;2023-06-19T06:17:16;4.82;;;3.03;;
23009;SDS011;11671;49.990;8.028;2023-06-19T06:19:41;3.10;;;2.80;;
23009;SDS011;11671;49.990;8.028;2023-06-19T06:22:07;4.07;;;2.90;;
23009;SDS011;11671;49.990;8.028;2023-06-19T06:24:33;5.90;;;2.70;;
23009;SDS011;11671;49.990;8.028;2023-06-19T06:26:58;4.25;;;2.50;;
23009;SDS011;11671;49.990;8.028;2023-06-19T06:29:24;4.95;;;2.60;;
23009;SDS011;11671;49.990;8.028;2023-06-19T06:31:50;4.57;;;2.67;;
23009;SDS011;11671;49.990;8.028;2023-06-19T06:34:19;4.57;;;2.88;;
23009;SDS011;11671;49.990;8.028;2023-06-19T06:36:44;6.07;;;3.25;;
23009;SDS011;11671;49.990;8.028;2023-06-19T06:39:10;4.45;;;3.20;;
23009;SDS011;11671;49.990;8.028;2023-06-19T06:41:36;5.20;;;2.90;;
23009;SDS011;11671;49.990;8.028;2023-06-19T06:44:02;3.10;;;2.72;;
23009;SDS011;11671;49.990;8.028;2023-06-19T06:46:29;3.50;;;2.83;;
23009;SDS011;11671;49.990;8.028;2023-06-19T06:48:54;5.43;;;3.35;;
23009;SDS011;11671;49.990;8.028;2023-06-19T06:51:20;3.70;;;3.25;;
23009;SDS011;11671;49.990;8.028;2023-06-19T06:53:47;3.13;;;2.75;;
23009;SDS011;11671;49.990;8.028;2023-06-19T06:56:12;4.43;;;2.78;;
23009;SDS011;11671;49.990;8.028;2023-06-19T06:58:38;6.25;;;2.90;;
23009;SDS011;11671;49.990;8.028;2023-06-19T07:01:04;3.35;;;2.50;;
23009;SDS011;11671;49.990;8.028;2023-06-19T07:03:29;6.25;;;3.53;;
23009;SDS011;11671;49.990;8.028;2023-06-19T07:05:56;4.07;;;2.80;;
23009;SDS011;11671;49.990;8.028;2023-06-19T07:08:22;4.78;;;3.17;;
23009;SDS011;11671;49.990;8.028;2023-06-19T07:10:48;6.80;;;3.13;;
23009;SDS011;11671;49.990;8.028;2023-06-19T07:13:14;3.70;;;2.78;;
23009;SDS011;11671;49.990;8.028;2023-06-19T07:15:39;10.77;;;3.25;;
23009;SDS011;11671;49.990;8.028;2023-06-19T07:18:05;5.63;;;2.80;;
23009;SDS011;11671;49.990;8.028;2023-06-19T07:20:31;8.43;;;2.97;;
23009;SDS011;11671;49.990;8.028;2023-06-19T07:22:56;7.10;;;3.58;;
23009;SDS011;11671;49.990;8.028;2023-06-19T07:25:22;6.13;;;3.08;;
23009;SDS011;11671;49.990;8.028;2023-06-19T07:27:50;7.57;;;3.00;;
23009;SDS011;11671;49.990;8.028;2023-06-19T07:30:16;8.88;;;3.58;;
23009;SDS011;11671;49.990;8.028;2023-06-19T07:32:42;5.60;;;3.55;;
23009;SDS011;11671;49.990;8.028;2023-06-19T07:35:07;6.57;;;3.28;;
23009;SDS011;11671;49.990;8.028;2023-06-19T07:37:33;3.95;;;2.80;;
23009;SDS011;11671;49.990;8.028;2023-06-19T07:39:59;7.03;;;2.92;;
23009;SDS011;11671;49.990;8.028;2023-06-19T07:42:25;8.13;;;2.95;;
23009;SDS011;11671;49.990;8.028;2023-06-19T07:44:51;4.43;;;2.70;;
23009;SDS011;11671;49.990;8.028;2023-06-19T07:47:17;3.65;;;3.00;;
23009;SDS011;11671;49.990;8.028;2023-06-19T07:49:43;7.47;;;3.30;;
23009;SDS011;11671;49.990;8.028;2023-06-19T07:52:10;6.88;;;3.17;;
23009;SDS011;11671;49.990;8.028;2023-06-19T07:54:36;4.32;;;3.13;;
23009;SDS011;11671;49.990;8.028;2023-06-19T07:57:16;4.47;;;2.42;;
23009;SDS011;11671;49.990;8.028;2023-06-19T07:59:42;5.47;;;2.90;;
23009;SDS011;11671;49.990;8.028;2023-06-19T08:02:07;6.30;;;2.75;;
23009;SDS011;11671;49.990;8.028;2023-06-19T08:04:33;4.07;;;3.13;;
23009;SDS011;11671;49.990;8.028;2023-06-19T08:06:59;6.28;;;2.72;;
23009;SDS011;11671;49.990;8.028;2023-06-19T08:09:24;5.32;;;3.00;;
23009;SDS011;11671;49.990;8.028;2023-06-19T08:11:50;3.03;;;2.67;;
23009;SDS011;11671;49.990;8.028;2023-06-19T08:14:15;3.13;;;2.75;;
23009;SDS011;11671;49.990;8.028;2023-06-19T08:16:41;4.18;;;2.83;;
23009;SDS011;11671;49.990;8.028;2023-06-19T08:19:06;4.68;;;2.70;;
23009;SDS011;11671;49.990;8.028;2023-06-19T08:21:32;6.00;;;2.90;;
23009;SDS011;11671;49.990;8.028;2023-06-19T08:23:57;4.20;;;2.80;;
23009;SDS011;11671;49.990;8.028;2023-06-19T08:26:23;5.72;;;2.78;;
23009;SDS011;11671;49.990;8.028;2023-06-19T08:28:49;6.35;;;3.03;;
23009;SDS011;11671;49.990;8.028;2023-06-19T08:31:14;5.50;;;3.90;;
23009;SDS011;11671;49.990;8.028;2023-06-19T08:33:40;5.07;;;2.70;;
23009;SDS011;11671;49.990;8.028;2023-06-19T08:36:05;4.15;;;2.88;;
23009;SDS011;11671;49.990;8.028;2023-06-19T08:38:31;4.38;;;2.92;;
23009;SDS011;11671;49.990;8.028;2023-06-19T08:40:57;3.15;;;2.85;;
23009;SDS011;11671;49.990;8.028;2023-06-19T08:43:23;3.22;;;2.67;;
23009;SDS011;11671;49.990;8.028;2023-06-19T08:45:52;4.18;;;3.00;;
23009;SDS011;11671;49.990;8.028;2023-06-19T08:48:25;7.38;;;2.92;;
23009;SDS011;11671;49.990;8.028;2023-06-19T08:50:50;3.47;;;2.83;;
23009;SDS011;11671;49.990;8.028;2023-06-19T08:53:16;4.85;;;2.60;;
23009;SDS011;11671;49.990;8.028;2023-06-19T08:55:42;3.08;;;2.72;;
23009;SDS011;11671;49.990;8.028;2023-06-19T08:58:09;3.83;;;3.15;;
23009;SDS011;11671;49.990;8.028;2023-06-19T09:00:35;4.53;;;3.03;;
23009;SDS011;11671;49.990;8.028;2023-06-19T09:03:02;4.97;;;3.10;;
23009;SDS011;11671;49.990;8.028;2023-06-19T09:05:28;3.75;;;2.60;;
23009;SDS011;11671;49.990;8.028;2023-06-19T09:07:55;4.20;;;3.00;;
23009;SDS011;11671;49.990;8.028;2023-06-19T09:10:22;8.00;;;2.72;;
23009;SDS011;11671;49.990;8.028;2023-06-19T09:15:26;3.78;;;2.80;;
23009;SDS011;11671;49.990;8.028;2023-06-19T09:18:26;4.82;;;2.72;;
23009;SDS011;11671;49.990;8.028;2023-06-19T09:20:45;4.28;;;3.00;;
23009;SDS011;11671;49.990;8.028;2023-06-19T09:23:12;4.00;;;2.70;;
23009;SDS011;11671;49.990;8.028;2023-06-19T09:25:48;7.13;;;2.67;;
23009;SDS011;11671;49.990;8.028;2023-06-19T09:28:21;5.22;;;2.47;;
23009;SDS011;11671;49.990;8.028;2023-06-19T09:30:51;3.53;;;2.95;;
23009;SDS011;11671;49.990;8.028;2023-06-19T09:33:22;3.97;;;2.83;;
23009;SDS011;11671;49.990;8.028;2023-06-19T09:35:49;4.18;;;2.92;;
23009;SDS011;11671;49.990;8.028;2023-06-19T09:38:16;5.07;;;2.78;;
23009;SDS011;11671;49.990;8.028;2023-06-19T09:40:44;4.50;;;2.50;;
23009;SDS011;11671;49.990;8.028;2023-06-19T09:43:12;7.13;;;2.60;;
23009;SDS011;11671;49.990;8.028;2023-06-19T09:45:43;4.03;;;2.65;;
23009;SDS011;11671;49.990;8.028;2023-06-19T09:48:12;3.90;;;2.65;;
23009;SDS011;11671;49.990;8.028;2023-06-19T09:50:43;4.55;;;3.03;;
23009;SDS011;11671;49.990;8.028;2023-06-19T09:53:11;3.75;;;2.70;;
23009;SDS011;11671;49.990;8.028;2023-06-19T09:55:37;4.95;;;2.33;;
23009;SDS011;11671;49.990;8.028;2023-06-19T09:58:03;3.17;;;2.47;;
23009;SDS011;11671;49.990;8.028;2023-06-19T10:00:30;2.95;;;2.53;;
23009;SDS011;11671;49.990;8.028;2023-06-19T10:02:57;4.55;;;2.90;;
23009;SDS011;11671;49.990;8.028;2023-06-19T10:05:28;3.22;;;2.85;;
23009;SDS011;11671;49.990;8.028;2023-06-19T10:07:57;3.95;;;2.45;;
23009;SDS011;11671;49.990;8.028;2023-06-19T10:10:25;4.93;;;2.53;;
23009;SDS011;11671;49.990;8.028;2023-06-19T10:12:56;4.10;;;2.53;;
23009;SDS011;11671;49.990;8.028;2023-06-19T10:15:25;5.22;;;2.47;;
23009;SDS011;11671;49.990;8.028;2023-06-19T10:23:02;5.90;;;2.78;;
23009;SDS011;11671;49.990;8.028;2023-06-19T10:25:37;6.05;;;2.75;;
23009;SDS011;11671;49.990;8.028;2023-06-19T10:28:04;4.65;;;2.88;;
23009;SDS011;11671;49.990;8.028;2023-06-19T10:30:43;4.40;;;2.85;;
23009;SDS011;11671;49.990;8.028;2023-06-19T10:33:09;4.47;;;2.95;;
23009;SDS011;11671;49.990;8.028;2023-06-19T10:35:40;4.43;;;2.88;;
23009;SDS011;11671;49.990;8.028;2023-06-19T10:38:09;2.92;;;2.60;;
23009;SDS011;11671;49.990;8.028;2023-06-19T10:40:38;3.97;;;3.10;;
23009;SDS011;11671;49.990;8.028;2023-06-19T10:43:04;5.15;;;2.88;;
23009;SDS011;11671;49.990;8.028;2023-06-19T10:45:30;3.33;;;2.58;;
23009;SDS011;11671;49.990;8.028;2023-06-19T10:47:55;4.32;;;2.40;;
23009;SDS011;11671;49.990;8.028;2023-06-19T10:50:23;5.95;;;2.75;;
23009;SDS011;11671;49.990;8.028;2023-06-19T10:52:52;4.15;;;2.60;;
23009;SDS011;11671;49.990;8.028;2023-06-19T10:55:19;3.47;;;2.40;;
23009;SDS011;11671;49.990;8.028;2023-06-19T10:57:46;4.05;;;2.28;;
23009;SDS011;11671;49.990;8.028;2023-06-19T11:00:56;3.38;;;3.08;;
23009;SDS011;11671;49.990;8.028;2023-06-19T11:03:22;5.03;;;2.70;;
23009;SDS011;11671;49.990;8.028;2023-06-19T11:05:48;3.83;;;2.88;;
23009;SDS011;11671;49.990;8.028;2023-06-19T11:08:23;3.65;;;2.55;;
23009;SDS011;11671;49.990;8.028;2023-06-19T11:10:49;6.85;;;3.00;;
23009;SDS011;11671;49.990;8.028;2023-06-19T11:13:16;2.95;;;2.40;;
23009;SDS011;11671;49.990;8.028;2023-06-19T11:15:44;4.90;;;2.80;;
23009;SDS011;11671;49.990;8.028;2023-06-19T11:18:10;6.45;;;3.08;;
23009;SDS011;11671;49.990;8.028;2023-06-19T11:20:49;5.20;;;2.75;;
23009;SDS011;11671;49.990;8.028;2023-06-19T11:23:29;4.00;;;2.65;;
23009;SDS011;11671;49.990;8.028;2023-06-19T11:26:02;4.40;;;2.60;;
23009;SDS011;11671;49.990;8.028;2023-06-19T11:28:28;4.28;;;2.97;;
23009;SDS011;11671;49.990;8.028;2023-06-19T11:31:01;3.50;;;2.45;;
23009;SDS011;11671;49.990;8.028;2023-06-19T11:33:30;3.97;;;2.53;;
23009;SDS011;11671;49.990;8.028;2023-06-19T11:36:01;4.05;;;2.67;;
23009;SDS011;11671;49.990;8.028;2023-06-19T11:38:28;3.95;;;3.00;;
23009;SDS011;11671;49.990;8.028;2023-06-19T11:40:54;5.88;;;2.70;;
23009;SDS011;11671;49.990;8.028;2023-06-19T11:43:26;3.35;;;2.60;;
23009;SDS011;11671;49.990;8.028;2023-06-19T11:45:52;4.05;;;2.85;;
23009;SDS011;11671;49.990;8.028;2023-06-19T11:48:22;3.40;;;2.45;;
23009;SDS011;11671;49.990;8.028;2023-06-19T11:50:49;4.93;;;3.00;;
23009;SDS011;11671;49.990;8.028;2023-06-19T11:53:16;8.00;;;3.38;;
23009;SDS011;11671;49.990;8.028;2023-06-19T11:55:41;4.25;;;2.80;;
23009;SDS011;11671;49.990;8.028;2023-06-19T11:58:08;3.90;;;2.78;;
23009;SDS011;11671;49.990;8.028;2023-06-19T12:00:35;4.35;;;2.80;;
23009;SDS011;11671;49.990;8.028;2023-06-19T12:03:02;4.68;;;2.35;;
23009;SDS011;11671;49.990;8.028;2023-06-19T12:05:28;3.88;;;2.20;;
23009;SDS011;11671;49.990;8.028;2023-06-19T12:07:54;5.57;;;2.45;;
23009;SDS011;11671;49.990;8.028;2023-06-19T12:10:20;2.88;;;2.38;;
23009;SDS011;11671;49.990;8.028;2023-06-19T12:12:45;6.50;;;2.80;;
23009;SDS011;11671;49.990;8.028;2023-06-19T12:15:11;4.05;;;2.75;;
23009;SDS011;11671;49.990;8.028;2023-06-19T12:17:36;4.13;;;3.17;;
23009;SDS011;11671;49.990;8.028;2023-06-19T12:20:02;4.60;;;2.58;;
23009;SDS011;11671;49.990;8.028;2023-06-19T12:22:32;5.13;;;3.38;;
23009;SDS011;11671;49.990;8.028;2023-06-19T12:24:59;3.40;;;2.58;;
23009;SDS011;11671;49.990;8.028;2023-06-19T12:27:25;3.40;;;2.40;;
23009;SDS011;11671;49.990;8.028;2023-06-19T12:29:50;4.13;;;2.80;;
23009;SDS011;11671;49.990;8.028;2023-06-19T12:32:16;5.10;;;2.58;;
23009;SDS011;11671;49.990;8.028;2023-06-19T12:34:41;8.13;;;3.00;;
23009;SDS011;11671;49.990;8.028;2023-06-19T12:37:11;6.00;;;2.78;;
23009;SDS011;11671;49.990;8.028;2023-06-19T12:39:42;3.67;;;2.63;;
23009;SDS011;11671;49.990;8.028;2023-06-19T12:42:08;5.28;;;2.60;;
23009;SDS011;11671;49.990;8.028;2023-06-19T12:44:36;2.83;;;2.28;;
23009;SDS011;11671;49.990;8.028;2023-06-19T12:47:02;5.68;;;2.92;;
23009;SDS011;11671;49.990;8.028;2023-06-19T12:49:29;3.25;;;2.53;;
23009;SDS011;11671;49.990;8.028;2023-06-19T12:51:55;5.95;;;2.80;;
23009;SDS011;11671;49.990;8.028;2023-06-19T12:54:21;3.85;;;2.33;;
23009;SDS011;11671;49.990;8.028;2023-06-19T12:56:56;3.75;;;2.58;;
23009;SDS011;11671;49.990;8.028;2023-06-19T12:59:33;4.65;;;2.38;;
23009;SDS011;11671;49.990;8.028;2023-06-19T13:01:59;5.65;;;2.83;;
23009;SDS011;11671;49.990;8.028;2023-06-19T13:04:25;5.70;;;2.38;;
23009;SDS011;11671;49.990;8.028;2023-06-19T13:06:50;4.38;;;2.92;;
23009;SDS011;11671;49.990;8.028;2023-06-19T13:09:17;2.92;;;2.35;;
23009;SDS011;11671;49.990;8.028;2023-06-19T13:11:45;3.03;;;2.72;;
23009;SDS011;11671;49.990;8.028;2023-06-19T13:14:11;5.18;;;2.33;;
23009;SDS011;11671;49.990;8.028;2023-06-19T13:16:37;4.30;;;2.58;;
23009;SDS011;11671;49.990;8.028;2023-06-19T13:19:02;3.00;;;2.30;;
23009;SDS011;11671;49.990;8.028;2023-06-19T13:21:28;3.78;;;2.35;;
23009;SDS011;11671;49.990;8.028;2023-06-19T13:23:54;3.30;;;2.40;;
23009;SDS011;11671;49.990;8.028;2023-06-19T13:26:19;3.17;;;2.35;;
23009;SDS011;11671;49.990;8.028;2023-06-19T13:28:45;5.78;;;2.90;;
23009;SDS011;11671;49.990;8.028;2023-06-19T13:31:11;4.93;;;2.83;;
23009;SDS011;11671;49.990;8.028;2023-06-19T13:33:37;5.93;;;2.20;;
23009;SDS011;11671;49.990;8.028;2023-06-19T13:36:02;4.50;;;2.53;;
23009;SDS011;11671;49.990;8.028;2023-06-19T13:38:28;9.32;;;2.67;;
23009;SDS011;11671;49.990;8.028;2023-06-19T13:40:54;5.47;;;2.13;;
23009;SDS011;11671;49.990;8.028;2023-06-19T13:43:19;5.00;;;2.53;;
23009;SDS011;11671;49.990;8.028;2023-06-19T13:45:48;3.45;;;2.58;;
23009;SDS011;11671;49.990;8.028;2023-06-19T13:48:14;4.38;;;2.40;;
23009;SDS011;11671;49.990;8.028;2023-06-19T13:50:39;2.88;;;2.17;;
23009;SDS011;11671;49.990;8.028;2023-06-19T13:53:05;3.88;;;2.40;;
23009;SDS011;11671;49.990;8.028;2023-06-19T13:55:30;3.67;;;2.50;;
23009;SDS011;11671;49.990;8.028;2023-06-19T13:57:56;3.25;;;2.25;;
23009;SDS011;11671;49.990;8.028;2023-06-19T14:00:22;3.25;;;2.35;;
23009;SDS011;11671;49.990;8.028;2023-06-19T14:02:47;8.80;;;2.70;;
23009;SDS011;11671;49.990;8.028;2023-06-19T14:05:14;2.85;;;2.55;;
23009;SDS011;11671;49.990;8.028;2023-06-19T14:07:40;4.10;;;2.53;;
23009;SDS011;11671;49.990;8.028;2023-06-19T14:10:07;4.95;;;2.40;;
23009;SDS011;11671;49.990;8.028;2023-06-19T14:12:33;3.17;;;2.58;;
23009;SDS011;11671;49.990;8.028;2023-06-19T14:14:58;2.95;;;2.38;;
23009;SDS011;11671;49.990;8.028;2023-06-19T14:17:24;5.93;;;2.38;;
23009;SDS011;11671;49.990;8.028;2023-06-19T14:19:50;4.05;;;2.47;;
23009;SDS011;11671;49.990;8.028;2023-06-19T14:22:16;6.57;;;2.80;;
23009;SDS011;11671;49.990;8.028;2023-06-19T14:24:42;4.68;;;2.63;;
23009;SDS011;11671;49.990;8.028;2023-06-19T14:27:07;5.32;;;2.40;;
23009;SDS011;11671;49.990;8.028;2023-06-19T14:29:33;4.63;;;2.92;;
23009;SDS011;11671;49.990;8.028;2023-06-19T14:31:59;3.10;;;2.40;;
23009;SDS011;11671;49.990;8.028;2023-06-19T14:34:24;3.15;;;2.47;;
23009;SDS011;11671;49.990;8.028;2023-06-19T14:36:50;4.35;;;2.25;;
23009;SDS011;11671;49.990;8.028;2023-06-19T14:39:15;3.15;;;2.40;;
23009;SDS011;11671;49.990;8.028;2023-06-19T14:41:41;3.97;;;2.45;;
23009;SDS011;11671;49.990;8.028;2023-06-19T14:44:07;6.50;;;2.40;;
23009;SDS011;11671;49.990;8.028;2023-06-19T14:46:33;4.63;;;2.75;;
23009;SDS011;11671;49.990;8.028;2023-06-19T14:49:03;5.00;;;2.80;;
23009;SDS011;11671;49.990;8.028;2023-06-19T14:51:38;4.95;;;2.38;;
23009;SDS011;11671;49.990;8.028;2023-06-19T14:54:03;2.38;;;2.05;;
23009;SDS011;11671;49.990;8.028;2023-06-19T14:56:29;4.68;;;2.45;;
23009;SDS011;11671;49.990;8.028;2023-06-19T14:58:54;3.70;;;2.70;;
23009;SDS011;11671;49.990;8.028;2023-06-19T15:01:20;4.07;;;2.63;;
23009;SDS011;11671;49.990;8.028;2023-06-19T15:03:46;4.05;;;2.55;;
23009;SDS011;11671;49.990;8.028;2023-06-19T15:06:11;6.28;;;2.45;;
23009;SDS011;11671;49.990;8.028;2023-06-19T15:08:37;5.50;;;2.67;;
23009;SDS011;11671;49.990;8.028;2023-06-19T15:11:04;3.65;;;1.75;;
23009;SDS011;11671;49.990;8.028;2023-06-19T15:13:30;3.38;;;2.20;;
23009;SDS011;11671;49.990;8.028;2023-06-19T15:15:56;5.50;;;2.88;;
23009;SDS011;11671;49.990;8.028;2023-06-19T15:18:23;5.28;;;2.40;;
23009;SDS011;11671;49.990;8.028;2023-06-19T15:20:49;5.38;;;2.72;;
23009;SDS011;11671;49.990;8.028;2023-06-19T15:23:15;2.80;;;2.15;;
23009;SDS011;11671;49.990;8.028;2023-06-19T15:25:41;2.50;;;2.00;;
23009;SDS011;11671;49.990;8.028;2023-06-19T15:28:06;3.95;;;2.50;;
23009;SDS011;11671;49.990;8.028;2023-06-19T15:30:32;4.00;;;2.20;;
23009;SDS011;11671;49.990;8.028;2023-06-19T15:32:57;3.63;;;2.28;;
23009;SDS011;11671;49.990;8.028;2023-06-19T15:35:24;6.38;;;2.60;;
23009;SDS011;11671;49.990;8.028;2023-06-19T15:37:50;4.75;;;2.80;;
23009;SDS011;11671;49.990;8.028;2023-06-19T15:40:15;4.78;;;2.50;;
23009;SDS011;11671;49.990;8.028;2023-06-19T15:42:41;4.85;;;2.47;;
23009;SDS011;11671;49.990;8.028;2023-06-19T15:45:07;3.05;;;2.40;;
23009;SDS011;11671;49.990;8.028;2023-06-19T15:47:33;5.05;;;2.75;;
23009;SDS011;11671;49.990;8.028;2023-06-19T15:50:02;3.47;;;2.22;;
23009;SDS011;11671;49.990;8.028;2023-06-19T15:52:28;3.28;;;2.45;;
23009;SDS011;11671;49.990;8.028;2023-06-19T15:54:54;5.68;;;2.60;;
23009;SDS011;11671;49.990;8.028;2023-06-19T15:57:20;3.25;;;2.30;;
23009;SDS011;11671;49.990;8.028;2023-06-19T15:59:46;2.97;;;2.30;;
23009;SDS011;11671;49.990;8.028;2023-06-19T16:02:12;6.10;;;2.38;;
23009;SDS011;11671;49.990;8.028;2023-06-19T16:04:38;3.05;;;2.17;;
23009;SDS011;11671;49.990;8.028;2023-06-19T16:07:04;4.97;;;2.45;;
23009;SDS011;11671;49.990;8.028;2023-06-19T16:09:30;3.00;;;2.38;;
23009;SDS011;11671;49.990;8.028;2023-06-19T16:11:55;4.88;;;2.50;;
23009;SDS011;11671;49.990;8.028;2023-06-19T16:14:21;4.20;;;2.75;;
23009;SDS011;11671;49.990;8.028;2023-06-19T16:16:47;3.97;;;2.70;;
23009;SDS011;11671;49.990;8.028;2023-06-19T16:19:13;3.20;;;2.30;;
23009;SDS011;11671;49.990;8.028;2023-06-19T16:21:39;4.20;;;2.17;;
23009;SDS011;11671;49.990;8.028;2023-06-19T16:24:04;5.75;;;2.53;;
23009;SDS011;11671;49.990;8.028;2023-06-19T16:26:30;4.50;;;2.63;;
23009;SDS011;11671;49.990;8.028;2023-06-19T16:28:55;3.38;;;2.75;;
23009;SDS011;11671;49.990;8.028;2023-06-19T16:31:21;4.13;;;2.70;;
23009;SDS011;11671;49.990;8.028;2023-06-19T16:33:47;5.90;;;2.58;;
23009;SDS011;11671;49.990;8.028;2023-06-19T16:36:12;4.97;;;2.60;;
23009;SDS011;11671;49.990;8.028;2023-06-19T16:38:38;4.57;;;2.83;;